Time;durP1;ratioP1;P1;durP2;ratioP2;P2;SDS_P1;SDS_P2;PMS_P1;PMS_P2;Temp;Humidity;BMP_temperature;BMP_pressure;BME280_temperature;BME280_humidity;BME280_pressure;Samples;Min_cycle;Max_cycle;Signal;HPM_P1;HPM_P2
2021/01/12 00:01:07;;;;;;;5.40;3.33;;;-7.90;99.90;;;;;;6199689;28;20207;-76
2021/01/12 00:04:09;;;;;;;6.67;3.37;;;-7.90;99.90;;;;;;6215350;28;20438;-76
2021/01/12 00:07:12;;;;;;;9.43;4.17;;;-7.90;99.90;;;;;;6203951;28;20208;-76
2021/01/12 00:10:15;;;;;;;4.33;2.87;;;-7.90;99.90;;;;;;6216898;28;20674;-76
2021/01/12 00:13:17;;;;;;;6.17;3.37;;;-7.90;99.90;;;;;;6204254;28;22206;-76
2021/01/12 00:16:20;;;;;;;6.53;3.27;;;-7.90;99.90;;;;;;6219904;28;20212;-76
2021/01/12 00:19:23;;;;;;;6.50;3.83;;;-7.90;99.90;;;;;;6205978;28;20225;-76
2021/01/12 00:22:25;;;;;;;5.33;3.30;;;-7.90;99.90;;;;;;6207042;28;20216;-76
2021/01/12 00:25:27;;;;;;;5.43;3.37;;;-7.90;99.90;;;;;;6203676;28;20748;-76
2021/01/12 00:28:29;;;;;;;6.00;3.40;;;-7.90;99.90;;;;;;6203938;28;20286;-76
2021/01/12 00:31:32;;;;;;;5.80;2.87;;;-8.00;99.90;;;;;;6204739;28;20674;-76
2021/01/12 00:34:35;;;;;;;5.17;3.07;;;-8.00;99.90;;;;;;6203430;28;20208;-76
2021/01/12 00:37:37;;;;;;;6.63;3.90;;;-8.00;99.90;;;;;;6204235;28;20208;-76
2021/01/12 00:40:39;;;;;;;7.30;3.00;;;-8.00;99.90;;;;;;6203848;28;20211;-77
2021/01/12 00:43:42;;;;;;;6.23;3.80;;;-8.00;99.90;;;;;;6203399;28;20735;-76
2021/01/12 00:46:45;;;;;;;4.50;3.10;;;-8.00;99.90;;;;;;6204984;28;20286;-77
2021/01/12 00:49:48;;;;;;;5.27;3.37;;;-8.00;99.90;;;;;;6204989;28;20696;-76
2021/01/12 00:52:50;;;;;;;6.53;3.97;;;-8.00;99.90;;;;;;6227930;28;20689;-76
2021/01/12 00:55:51;;;;;;;5.43;3.57;;;-8.10;99.90;;;;;;6228454;28;20215;-77
2021/01/12 00:58:53;;;;;;;5.50;3.47;;;-8.10;99.90;;;;;;6228001;28;20309;-76
2021/01/12 01:01:59;;;;;;;7.37;3.90;;;-8.10;99.90;;;;;;6229249;28;20204;-76
2021/01/12 01:05:02;;;;;;;6.90;3.97;;;-8.10;99.90;;;;;;6228271;28;20231;-76
2021/01/12 01:08:04;;;;;;;5.67;3.60;;;-8.10;99.90;;;;;;6220116;28;20294;-76
2021/01/12 01:11:06;;;;;;;7.17;4.07;;;-8.20;99.90;;;;;;6203552;28;20568;-76
2021/01/12 01:14:09;;;;;;;5.87;3.70;;;-8.20;99.90;;;;;;6201988;28;20197;-76
2021/01/12 01:17:11;;;;;;;7.37;3.93;;;-8.20;99.90;;;;;;6203353;28;20258;-76
2021/01/12 01:20:14;;;;;;;5.07;3.50;;;-8.20;99.90;;;;;;6202824;28;20706;-76
2021/01/12 01:23:17;;;;;;;5.30;3.63;;;-8.20;99.90;;;;;;6203698;28;20213;-76
2021/01/12 01:26:19;;;;;;;7.47;3.93;;;-8.20;99.90;;;;;;6202417;28;20607;-76
2021/01/12 01:29:22;;;;;;;5.67;3.87;;;-8.30;99.90;;;;;;6202592;28;20208;-76
2021/01/12 01:32:24;;;;;;;7.10;4.20;;;-8.30;99.90;;;;;;6202664;28;20224;-76
2021/01/12 01:35:26;;;;;;;6.93;4.00;;;-8.30;99.90;;;;;;6202548;28;20205;-76
2021/01/12 01:38:32;;;;;;;6.97;4.10;;;-8.30;99.90;;;;;;6203140;28;20216;-76
2021/01/12 01:41:34;;;;;;;7.00;3.60;;;-8.30;99.90;;;;;;6202423;28;20570;-76
2021/01/12 01:44:39;;;;;;;7.60;4.27;;;-8.30;99.90;;;;;;6202242;28;20235;-76
2021/01/12 01:47:43;;;;;;;5.47;3.20;;;-8.30;99.90;;;;;;6202549;28;20685;-76
2021/01/12 01:50:46;;;;;;;6.13;3.63;;;-8.40;99.90;;;;;;6220477;28;20437;-76
2021/01/12 01:53:49;;;;;;;8.80;4.47;;;-8.30;99.90;;;;;;6202292;28;20201;-76
2021/01/12 01:56:50;;;;;;;5.10;3.50;;;-8.40;99.90;;;;;;6201600;28;20658;-76
2021/01/12 01:59:52;;;;;;;7.47;3.87;;;-8.40;99.90;;;;;;6202082;28;20680;-76
2021/01/12 02:03:09;;;;;;;6.57;3.90;;;-8.40;99.90;;;;;;6201498;28;20295;-76
2021/01/12 02:06:19;;;;;;;7.70;4.57;;;-8.40;99.90;;;;;;6206986;28;20741;-76
2021/01/12 02:09:27;;;;;;;6.43;3.73;;;-8.40;99.90;;;;;;6242575;28;20204;-76
2021/01/12 02:12:35;;;;;;;5.30;3.57;;;-8.40;99.90;;;;;;6227288;28;20620;-76
2021/01/12 02:15:39;;;;;;;6.23;3.80;;;-8.40;99.90;;;;;;6225270;28;20303;-76
2021/01/12 02:18:41;;;;;;;6.40;3.47;;;-8.40;99.90;;;;;;6217790;28;20354;-76
2021/01/12 02:21:55;;;;;;;5.80;3.47;;;-8.40;99.90;;;;;;6203764;28;20243;-76
2021/01/12 02:24:57;;;;;;;7.10;3.37;;;-8.40;99.90;;;;;;6201367;28;20216;-76
2021/01/12 02:28:00;;;;;;;8.53;4.20;;;-8.50;99.90;;;;;;6202032;28;20719;-76
2021/01/12 02:31:03;;;;;;;5.67;3.97;;;-8.50;99.90;;;;;;6202201;28;20212;-76
2021/01/12 02:34:11;;;;;;;6.60;3.73;;;-8.50;99.90;;;;;;6200372;28;20196;-76
2021/01/12 02:37:16;;;;;;;5.60;3.40;;;-8.50;99.90;;;;;;6201341;28;20263;-76
2021/01/12 02:40:17;;;;;;;8.20;4.00;;;-8.60;99.90;;;;;;6200460;28;20221;-77
2021/01/12 02:43:22;;;;;;;7.63;3.80;;;-8.60;99.90;;;;;;6201242;28;20226;-77
2021/01/12 02:46:25;;;;;;;4.93;3.33;;;-8.60;99.90;;;;;;6200852;28;20262;-77
2021/01/12 02:49:27;;;;;;;5.17;2.90;;;-8.60;99.90;;;;;;6215154;28;20216;-76
2021/01/12 02:52:29;;;;;;;4.67;3.00;;;-8.60;99.90;;;;;;6225002;28;20239;-76
2021/01/12 02:55:32;;;;;;;6.57;3.57;;;-8.60;99.90;;;;;;6226433;28;20199;-77
2021/01/12 02:58:34;;;;;;;4.83;2.87;;;-8.60;99.90;;;;;;6225832;28;20204;-76
2021/01/12 03:01:36;;;;;;;5.40;3.00;;;-8.70;99.90;;;;;;6225095;28;20204;-77
2021/01/12 03:04:39;;;;;;;4.63;2.50;;;-8.70;99.90;;;;;;6225020;28;20244;-76
2021/01/12 03:07:41;;;;;;;5.93;3.27;;;-8.70;99.90;;;;;;6217622;28;20209;-76
2021/01/12 03:10:43;;;;;;;5.43;2.90;;;-8.70;99.90;;;;;;6199887;28;20286;-76
2021/01/12 03:13:46;;;;;;;6.03;3.30;;;-8.70;99.90;;;;;;6216107;28;20299;-76
2021/01/12 03:16:51;;;;;;;6.70;3.50;;;-8.70;99.90;;;;;;6201459;28;20521;-76
2021/01/12 03:19:53;;;;;;;6.57;2.97;;;-8.70;99.90;;;;;;6209679;28;20346;-76
2021/01/12 03:22:55;;;;;;;6.90;3.27;;;-8.70;99.90;;;;;;6200237;28;20207;-76
2021/01/12 03:25:57;;;;;;;5.00;2.77;;;-8.70;99.90;;;;;;6215569;28;20650;-76
2021/01/12 03:28:59;;;;;;;5.97;3.23;;;-8.70;99.90;;;;;;6200843;28;20213;-76
2021/01/12 03:32:00;;;;;;;5.37;3.00;;;-8.70;99.90;;;;;;6200904;28;20234;-76
2021/01/12 03:35:03;;;;;;;5.57;3.47;;;-8.70;99.90;;;;;;6201186;28;20652;-76
2021/01/12 03:38:05;;;;;;;5.13;3.10;;;-8.70;99.90;;;;;;6216502;28;20367;-76
2021/01/12 03:41:07;;;;;;;6.40;3.30;;;-8.70;99.90;;;;;;6200737;28;20204;-76
2021/01/12 03:44:10;;;;;;;4.73;3.03;;;-8.70;99.90;;;;;;6200361;28;20200;-77
2021/01/12 03:47:11;;;;;;;5.47;3.30;;;-8.80;99.90;;;;;;6218332;28;20232;-76
2021/01/12 03:50:15;;;;;;;5.50;3.00;;;-8.80;99.90;;;;;;6205964;28;20216;-76
2021/01/12 03:53:17;;;;;;;5.77;3.27;;;-8.80;99.90;;;;;;6229454;28;20211;-79
2021/01/12 03:56:19;;;;;;;4.20;2.70;;;-8.80;99.90;;;;;;6235312;28;20745;-78
2021/01/12 03:59:21;;;;;;;4.83;2.70;;;-8.80;99.90;;;;;;6210973;28;20299;-78
2021/01/12 04:02:22;;;;;;;4.70;2.83;;;-8.80;99.90;;;;;;6227717;28;20219;-78
2021/01/12 04:05:29;;;;;;;9.20;3.27;;;-8.80;99.90;;;;;;6211724;28;20237;-78
2021/01/12 04:08:31;;;;;;;4.77;2.63;;;-8.80;99.90;;;;;;6212991;28;20220;-78
2021/01/12 04:11:34;;;;;;;5.50;2.80;;;-8.80;99.90;;;;;;6229399;28;20350;-78
2021/01/12 04:14:36;;;;;;;4.63;2.97;;;-8.80;99.90;;;;;;6228600;28;20296;-78
2021/01/12 04:17:38;;;;;;;8.67;2.83;;;-8.80;99.90;;;;;;6223282;28;20208;-78
2021/01/12 04:20:41;;;;;;;6.37;3.40;;;-8.80;99.90;;;;;;6220019;28;20239;-78
2021/01/12 04:23:43;;;;;;;6.57;3.00;;;-8.80;99.90;;;;;;6221737;28;20243;-78
2021/01/12 04:26:45;;;;;;;4.50;2.40;;;-8.80;99.90;;;;;;6221946;28;20229;-78
2021/01/12 04:29:47;;;;;;;5.80;3.07;;;-8.80;99.90;;;;;;6222381;28;20568;-78
2021/01/12 04:32:49;;;;;;;6.17;3.13;;;-8.80;99.90;;;;;;6221961;28;20216;-78
2021/01/12 04:35:51;;;;;;;3.63;2.50;;;-8.90;99.90;;;;;;6221661;28;20211;-78
2021/01/12 04:38:53;;;;;;;4.50;2.97;;;-8.80;99.90;;;;;;6223596;28;20236;-78
2021/01/12 04:41:55;;;;;;;5.10;3.30;;;-8.90;99.90;;;;;;6228451;28;20885;-78
2021/01/12 04:44:56;;;;;;;5.73;3.27;;;-8.90;99.90;;;;;;6213341;28;20274;-79
2021/01/12 04:47:59;;;;;;;5.77;3.57;;;-8.90;99.90;;;;;;6214464;28;20197;-78
2021/01/12 04:51:08;;;;;;;6.47;3.83;;;-8.90;99.90;;;;;;6237782;28;20204;-78
2021/01/12 04:54:11;;;;;;;5.93;3.70;;;-8.80;99.90;;;;;;6239733;28;20220;-78
2021/01/12 04:57:13;;;;;;;6.90;4.10;;;-8.80;99.90;;;;;;6237688;28;20196;-78
2021/01/12 05:00:25;;;;;;;6.07;3.80;;;-8.80;99.90;;;;;;6254350;28;20295;-78
2021/01/12 05:03:28;;;;;;;6.77;3.83;;;-8.80;99.90;;;;;;6239111;28;20208;-78
2021/01/12 05:06:30;;;;;;;8.97;4.47;;;-8.80;99.90;;;;;;6231664;28;20258;-78
2021/01/12 05:09:33;;;;;;;7.90;3.87;;;-8.80;99.90;;;;;;6214055;28;20228;-78
2021/01/12 05:12:39;;;;;;;8.10;4.53;;;-8.80;99.90;;;;;;6214039;28;20209;-78
2021/01/12 05:15:41;;;;;;;6.27;3.60;;;-8.80;99.90;;;;;;6219863;28;20246;-79
2021/01/12 05:18:44;;;;;;;7.30;3.53;;;-8.80;99.90;;;;;;6200678;28;20280;-79
2021/01/12 05:21:47;;;;;;;9.73;4.13;;;-8.80;99.90;;;;;;6231465;28;20286;-79
2021/01/12 05:24:50;;;;;;;8.20;4.10;;;-8.80;99.90;;;;;;6197339;28;20240;-78
2021/01/12 05:27:53;;;;;;;9.10;4.70;;;-8.70;99.90;;;;;;6208051;28;20201;-78
2021/01/12 05:30:55;;;;;;;9.13;4.90;;;-8.70;99.90;;;;;;6208236;28;20210;-78
2021/01/12 05:34:19;;;;;;;10.20;5.27;;;-8.60;99.90;;;;;;6207993;28;20209;-78
2021/01/12 05:37:23;;;;;;;10.07;5.37;;;-8.60;99.90;;;;;;6208888;28;20204;-78
2021/01/12 05:40:27;;;;;;;10.23;4.87;;;-8.50;99.90;;;;;;6224833;28;20580;-78
2021/01/12 05:43:40;;;;;;;11.63;5.47;;;-8.40;99.90;;;;;;6210657;28;20208;-78
2021/01/12 05:46:45;;;;;;;10.80;5.17;;;-8.30;99.90;;;;;;6209977;28;20228;-78
2021/01/12 05:49:51;;;;;;;8.50;5.77;;;-8.20;99.90;;;;;;6219125;28;20217;-78
2021/01/12 05:53:14;;;;;;;9.87;5.13;;;-8.10;99.90;;;;;;6210213;28;20204;-78
2021/01/12 05:56:24;;;;;;;9.57;5.47;;;-8.00;99.90;;;;;;6226227;28;20204;-78
2021/01/12 05:59:29;;;;;;;9.17;5.20;;;-8.00;99.90;;;;;;6212655;28;20705;-78
2021/01/12 06:02:33;;;;;;;9.23;5.33;;;-7.90;99.90;;;;;;6211281;28;20224;-78
2021/01/12 06:05:37;;;;;;;9.33;5.20;;;-7.80;99.90;;;;;;6210162;28;20267;-78
2021/01/12 06:08:40;;;;;;;7.70;5.17;;;-7.70;99.90;;;;;;6209385;28;20201;-78
2021/01/12 06:11:47;;;;;;;8.73;4.80;;;-7.60;99.90;;;;;;6228318;28;20586;-78
2021/01/12 06:14:50;;;;;;;9.13;5.20;;;-7.50;99.90;;;;;;6210651;28;20681;-78
2021/01/12 06:18:04;;;;;;;10.07;5.20;;;-7.40;99.90;;;;;;6211623;28;20201;-78
2021/01/12 06:21:16;;;;;;;9.17;4.97;;;-7.40;99.90;;;;;;6234919;28;20227;-78
2021/01/12 06:24:27;;;;;;;10.27;6.30;;;-7.30;99.90;;;;;;6234985;28;20385;-78
2021/01/12 06:27:34;;;;;;;10.60;6.13;;;-7.20;99.90;;;;;;6235958;28;20220;-79
2021/01/12 06:30:37;;;;;;;11.07;6.30;;;-7.10;99.90;;;;;;6235220;28;20204;-78
2021/01/12 06:33:39;;;;;;;12.57;6.50;;;-7.10;99.90;;;;;;6218455;28;20519;-78
2021/01/12 06:36:48;;;;;;;11.33;6.57;;;-7.00;99.90;;;;;;6236403;28;20250;-78
2021/01/12 06:39:58;;;;;;;10.80;5.97;;;-6.90;99.90;;;;;;6236001;28;20236;-78
2021/01/12 06:43:00;;;;;;;11.77;5.97;;;-6.90;99.90;;;;;;6235892;28;20204;-78
2021/01/12 06:46:04;;;;;;;13.00;6.87;;;-6.70;99.90;;;;;;6236226;28;20240;-78
2021/01/12 06:49:07;;;;;;;10.07;6.03;;;-6.70;99.90;;;;;;6235345;28;20231;-78
2021/01/12 06:52:12;;;;;;;8.00;5.23;;;-6.60;99.90;;;;;;6236613;28;20236;-78
2021/01/12 06:55:16;;;;;;;9.70;5.60;;;-6.50;99.90;;;;;;6232130;28;20692;-78
2021/01/12 06:58:17;;;;;;;9.10;5.00;;;-6.50;99.90;;;;;;6231092;28;20210;-78
2021/01/12 07:01:22;;;;;;;10.70;6.13;;;-6.40;99.90;;;;;;6230309;28;20207;-78
2021/01/12 07:04:29;;;;;;;11.60;5.63;;;-6.40;99.90;;;;;;6231446;28;20565;-78
2021/01/12 07:07:51;;;;;;;9.83;6.23;;;-6.30;99.90;;;;;;6230975;28;20759;-78
2021/01/12 07:10:53;;;;;;;12.07;6.20;;;-6.20;99.90;;;;;;6245334;28;20202;-79
2021/01/12 07:13:55;;;;;;;9.47;4.83;;;-6.20;99.90;;;;;;6225603;28;20196;-78
2021/01/12 07:17:07;;;;;;;9.87;5.80;;;-6.10;99.90;;;;;;6225183;28;20206;-78
2021/01/12 07:20:23;;;;;;;10.77;5.83;;;-6.00;99.90;;;;;;6224796;28;20226;-78
2021/01/12 07:23:24;;;;;;;8.33;5.43;;;-5.90;99.90;;;;;;6226616;28;20673;-78
2021/01/12 07:26:30;;;;;;;10.60;6.07;;;-5.90;99.90;;;;;;6225072;28;20229;-78
2021/01/12 07:29:32;;;;;;;9.67;5.40;;;-5.70;99.90;;;;;;6224773;28;20209;-77
2021/01/12 07:32:41;;;;;;;10.63;5.73;;;-5.70;99.90;;;;;;6225653;28;20203;-78
2021/01/12 07:35:47;;;;;;;10.40;5.73;;;-5.60;99.90;;;;;;6247013;28;20219;-78
2021/01/12 07:38:51;;;;;;;11.60;5.90;;;-5.50;99.90;;;;;;6230135;28;20566;-78
2021/01/12 07:41:54;;;;;;;11.27;5.87;;;-5.40;99.90;;;;;;6229969;28;20703;-77
2021/01/12 07:44:56;;;;;;;9.77;5.80;;;-5.30;99.90;;;;;;6230979;28;20249;-78
2021/01/12 07:48:00;;;;;;;9.77;5.60;;;-5.20;99.90;;;;;;6231474;28;20260;-78
2021/01/12 07:51:04;;;;;;;8.47;5.60;;;-5.10;99.90;;;;;;6231580;28;20211;-78
2021/01/12 07:54:07;;;;;;;11.13;5.37;;;-5.00;99.90;;;;;;6231589;28;20577;-78
2021/01/12 07:57:10;;;;;;;9.03;5.60;;;-4.90;99.90;;;;;;6232056;28;20203;-78
2021/01/12 08:00:14;;;;;;;6.23;4.57;;;-4.80;99.90;;;;;;6230673;28;20312;-78
2021/01/12 08:03:17;;;;;;;9.43;5.93;;;-4.70;99.90;;;;;;6230877;28;20742;-78
2021/01/12 08:06:18;;;;;;;9.07;5.63;;;-4.60;99.90;;;;;;6225975;28;20266;-78
2021/01/12 08:09:21;;;;;;;12.37;6.30;;;-4.50;99.90;;;;;;6212453;28;20523;-78
2021/01/12 08:12:34;;;;;;;10.50;5.90;;;-4.40;99.90;;;;;;6208717;28;20258;-79
2021/01/12 08:15:38;;;;;;;11.17;6.27;;;-4.20;99.90;;;;;;6216979;28;20210;-78
2021/01/12 08:18:40;;;;;;;11.10;5.20;;;-4.10;99.90;;;;;;6227020;28;20213;-78
2021/01/12 08:21:42;;;;;;;9.40;5.63;;;-3.90;99.90;;;;;;6208046;28;20218;-78
2021/01/12 08:24:45;;;;;;;8.63;5.43;;;-3.70;99.90;;;;;;6205733;28;20767;-78
2021/01/12 08:27:54;;;;;;;7.73;4.70;;;-3.60;99.90;;;;;;6205303;28;20235;-78
2021/01/12 08:30:55;;;;;;;6.67;4.27;;;-3.50;99.90;;;;;;6206066;28;20220;-78
2021/01/12 08:34:01;;;;;;;7.43;4.67;;;-3.40;99.90;;;;;;6223395;28;20236;-78
2021/01/12 08:37:04;;;;;;;7.37;5.00;;;-3.20;99.90;;;;;;6208214;28;20240;-78
2021/01/12 08:40:08;;;;;;;10.37;5.57;;;-3.10;99.90;;;;;;6211172;28;20227;-78
2021/01/12 08:43:19;;;;;;;8.73;4.60;;;-3.00;99.90;;;;;;6207804;28;20278;-78
2021/01/12 08:46:20;;;;;;;9.00;5.10;;;-2.80;99.90;;;;;;6206765;28;20315;-78
2021/01/12 08:49:33;;;;;;;6.73;4.77;;;-2.70;99.90;;;;;;6212186;28;20655;-78
2021/01/12 08:52:39;;;;;;;6.97;4.93;;;-2.50;99.90;;;;;;6206960;28;20216;-78
2021/01/12 08:55:42;;;;;;;6.70;4.33;;;-2.40;99.90;;;;;;6205494;28;20478;-78
2021/01/12 08:58:44;;;;;;;7.20;4.33;;;-2.30;99.90;;;;;;6205432;28;20211;-78
2021/01/12 09:01:47;;;;;;;7.67;4.97;;;-2.10;99.90;;;;;;6206105;28;20688;-78
2021/01/12 09:05:00;;;;;;;6.43;4.23;;;-2.10;99.90;;;;;;6222758;28;20220;-78
2021/01/12 09:08:10;;;;;;;6.83;4.40;;;-1.90;99.90;;;;;;6224748;28;20207;-78
2021/01/12 09:11:12;;;;;;;7.03;4.73;;;-1.80;99.90;;;;;;6213136;28;20664;-79
2021/01/12 09:14:22;;;;;;;7.40;4.80;;;-1.80;99.90;;;;;;6216587;28;20258;-78
2021/01/12 09:17:23;;;;;;;9.47;5.27;;;-1.70;99.90;;;;;;6228412;28;20204;-78
2021/01/12 09:20:25;;;;;;;7.37;5.07;;;-1.60;99.90;;;;;;6212196;28;20230;-78
2021/01/12 09:23:29;;;;;;;9.50;5.57;;;-1.50;99.90;;;;;;6228400;28;20200;-78
2021/01/12 09:26:32;;;;;;;6.10;4.33;;;-1.30;99.90;;;;;;6228829;28;20230;-78
2021/01/12 09:29:38;;;;;;;8.30;5.27;;;-1.30;99.90;;;;;;6228641;28;20735;-78
2021/01/12 09:32:41;;;;;;;9.20;5.53;;;-1.20;99.90;;;;;;6228773;28;20207;-77
2021/01/12 09:35:43;;;;;;;10.73;6.00;;;-1.10;99.90;;;;;;6227384;28;20309;-78
2021/01/12 09:38:49;;;;;;;12.53;7.07;;;-1.10;99.90;;;;;;6227189;28;20580;-78
2021/01/12 09:41:53;;;;;;;9.70;6.30;;;-1.00;99.90;;;;;;6227740;28;20212;-78
2021/01/12 09:44:56;;;;;;;11.37;6.13;;;-0.90;99.90;;;;;;6228999;28;20295;-77
2021/01/12 09:48:01;;;;;;;12.77;7.00;;;-0.80;99.90;;;;;;6227825;28;20235;-78
2021/01/12 09:51:05;;;;;;;14.57;6.83;;;-0.70;99.90;;;;;;6229115;28;20204;-77
2021/01/12 09:54:07;;;;;;;13.70;7.77;;;-0.60;99.90;;;;;;6229546;28;20350;-78
2021/01/12 09:57:09;;;;;;;11.87;7.30;;;-0.50;99.90;;;;;;6229523;28;20213;-77
2021/01/12 10:00:12;;;;;;;13.27;7.40;;;-0.40;99.90;;;;;;6229212;28;20617;-77
2021/01/12 10:03:14;;;;;;;13.27;7.30;;;-0.30;99.90;;;;;;6228814;28;20219;-77
2021/01/12 10:06:27;;;;;;;15.67;7.23;;;-0.20;99.90;;;;;;6222624;28;20585;-78
2021/01/12 10:09:29;;;;;;;13.37;6.53;;;0.00;99.90;;;;;;6220304;28;20196;-78
2021/01/12 10:12:31;;;;;;;13.50;6.60;;;0.10;99.90;;;;;;6203955;28;20215;-77
2021/01/12 10:15:33;;;;;;;11.50;6.07;;;0.30;99.90;;;;;;6220094;28;20196;-77
2021/01/12 10:18:35;;;;;;;15.30;6.87;;;0.40;99.90;;;;;;6204778;28;20212;-78
2021/01/12 10:21:37;;;;;;;14.93;6.67;;;0.50;99.90;;;;;;6201958;28;20275;-77
2021/01/12 10:24:40;;;;;;;17.37;6.90;;;0.50;99.90;;;;;;6202149;28;20319;-77
2021/01/12 10:27:43;;;;;;;14.00;7.27;;;0.50;99.90;;;;;;6201914;28;20228;-77
2021/01/12 10:30:45;;;;;;;13.13;7.03;;;0.50;99.90;;;;;;6201743;28;20220;-77
2021/01/12 10:33:50;;;;;;;14.87;8.23;;;0.60;99.90;;;;;;6202038;28;20209;-77
2021/01/12 10:36:53;;;;;;;11.97;6.47;;;0.50;99.90;;;;;;6201627;28;20705;-77
2021/01/12 10:39:57;;;;;;;12.73;7.23;;;0.50;99.90;;;;;;6203968;28;20575;-77
2021/01/12 10:42:59;;;;;;;12.40;6.80;;;0.40;99.90;;;;;;6203377;28;20208;-77
2021/01/12 10:46:03;;;;;;;11.07;6.80;;;0.40;99.90;;;;;;6202974;28;20236;-77
2021/01/12 10:49:05;;;;;;;11.73;6.60;;;0.40;99.90;;;;;;6206140;28;20213;-77
2021/01/12 10:52:08;;;;;;;13.00;7.93;;;0.40;99.90;;;;;;6219239;28;20220;-77
2021/01/12 10:55:11;;;;;;;16.20;6.70;;;0.40;99.90;;;;;;6202148;28;20605;-77
2021/01/12 10:58:14;;;;;;;13.50;7.33;;;0.40;99.90;;;;;;6202942;28;20204;-77
2021/01/12 11:01:18;;;;;;;15.80;7.80;;;0.50;99.90;;;;;;6202787;28;20197;-77
2021/01/12 11:04:21;;;;;;;12.93;6.93;;;0.40;99.90;;;;;;6202788;28;20212;-77
2021/01/12 11:07:25;;;;;;;15.73;7.07;;;0.50;99.90;;;;;;6208626;28;20247;-77
2021/01/12 11:10:28;;;;;;;12.23;6.80;;;0.50;99.90;;;;;;6203673;28;20220;-77
2021/01/12 11:13:30;;;;;;;13.60;7.57;;;0.50;99.90;;;;;;6203020;28;20307;-77
2021/01/12 11:16:39;;;;;;;14.43;6.83;;;0.60;99.90;;;;;;6203299;28;20420;-77
2021/01/12 11:19:41;;;;;;;12.37;7.90;;;0.60;99.90;;;;;;6209433;28;20592;-77
2021/01/12 11:22:45;;;;;;;14.97;8.93;;;0.70;99.90;;;;;;6202714;28;20215;-77
2021/01/12 11:25:47;;;;;;;21.47;8.53;;;0.70;99.90;;;;;;6201945;28;20224;-77
2021/01/12 11:28:48;;;;;;;17.57;8.33;;;0.80;99.90;;;;;;6202436;28;20192;-77
2021/01/12 11:31:51;;;;;;;13.70;8.03;;;0.80;99.90;;;;;;6200857;28;20201;-77
2021/01/12 11:34:53;;;;;;;13.90;7.53;;;0.80;99.90;;;;;;6201880;28;20219;-77
2021/01/12 11:37:58;;;;;;;17.63;8.27;;;0.80;99.90;;;;;;6201600;28;20192;-77
2021/01/12 11:41:00;;;;;;;16.50;9.00;;;0.80;99.90;;;;;;6202051;28;20232;-77
2021/01/12 11:44:03;;;;;;;19.40;10.20;;;0.80;99.90;;;;;;6202838;28;20208;-77
2021/01/12 11:47:06;;;;;;;16.53;10.00;;;0.80;99.90;;;;;;6201100;28;20263;-77
2021/01/12 11:50:09;;;;;;;16.17;9.40;;;0.80;99.90;;;;;;6220023;28;20208;-77
2021/01/12 11:53:10;;;;;;;19.67;9.03;;;0.80;99.90;;;;;;6225327;28;20218;-77
2021/01/12 11:56:12;;;;;;;24.37;9.43;;;0.90;99.90;;;;;;6225101;28;20265;-77
2021/01/12 11:59:15;;;;;;;16.40;8.50;;;1.00;99.90;;;;;;6228340;28;20203;-77
2021/01/12 12:02:17;;;;;;;15.47;7.87;;;1.00;99.90;;;;;;6228926;28;20959;-77
2021/01/12 12:05:19;;;;;;;17.40;7.90;;;1.10;99.90;;;;;;6228076;28;21101;-79
2021/01/12 12:08:21;;;;;;;14.40;7.37;;;1.10;99.90;;;;;;6218764;28;20201;-78
2021/01/12 12:11:23;;;;;;;15.83;7.43;;;1.10;99.90;;;;;;6205223;28;20209;-77
2021/01/12 12:14:25;;;;;;;14.03;6.90;;;1.10;99.90;;;;;;6204422;28;20255;-78
2021/01/12 12:17:27;;;;;;;9.17;5.57;;;1.10;99.90;;;;;;6188534;28;20197;-77
2021/01/12 12:20:30;;;;;;;13.10;6.43;;;1.20;99.90;;;;;;6205008;28;20298;-77
2021/01/12 12:23:33;;;;;;;13.30;5.70;;;1.20;99.90;;;;;;6205315;28;20224;-77
2021/01/12 12:26:36;;;;;;;13.83;5.90;;;1.20;99.90;;;;;;6205599;28;20271;-77
2021/01/12 12:29:38;;;;;;;10.87;5.50;;;1.10;99.90;;;;;;6205511;28;20724;-78
2021/01/12 12:32:41;;;;;;;11.00;5.07;;;1.10;99.90;;;;;;6205486;28;20208;-78
2021/01/12 12:35:43;;;;;;;7.30;4.67;;;1.00;99.90;;;;;;6220385;28;20573;-77
2021/01/12 12:38:45;;;;;;;11.07;5.03;;;1.00;99.90;;;;;;6189602;28;20416;-77
2021/01/12 12:41:47;;;;;;;12.43;5.40;;;0.90;99.90;;;;;;6220538;28;20242;-77
2021/01/12 12:44:49;;;;;;;8.23;5.07;;;1.00;99.90;;;;;;6203909;28;20682;-77
2021/01/12 12:47:51;;;;;;;14.73;4.47;;;1.00;99.90;;;;;;6204450;28;20224;-76
2021/01/12 12:50:54;;;;;;;7.90;4.83;;;0.90;99.90;;;;;;6228799;28;20234;-77
2021/01/12 12:53:56;;;;;;;9.10;4.60;;;0.90;99.90;;;;;;6227845;28;20200;-77
2021/01/12 12:56:59;;;;;;;7.90;4.93;;;0.80;99.90;;;;;;6227834;28;20212;-77
2021/01/12 13:00:03;;;;;;;8.57;4.80;;;0.80;99.90;;;;;;6227470;28;20200;-77
2021/01/12 13:03:05;;;;;;;9.93;5.07;;;0.80;99.90;;;;;;6227727;28;20203;-77
2021/01/12 13:06:08;;;;;;;10.43;4.50;;;0.80;99.90;;;;;;6223939;28;20220;-77
2021/01/12 13:09:11;;;;;;;8.17;4.23;;;0.80;99.90;;;;;;6203300;28;20204;-77
2021/01/12 13:12:17;;;;;;;7.73;5.07;;;0.80;99.90;;;;;;6202725;28;20204;-77
2021/01/12 13:15:20;;;;;;;8.10;4.60;;;0.90;99.90;;;;;;6203786;28;20267;-77
2021/01/12 13:18:24;;;;;;;8.90;5.10;;;0.90;99.90;;;;;;6203854;28;20215;-77
2021/01/12 13:21:26;;;;;;;9.80;5.00;;;1.00;99.90;;;;;;6203498;28;20224;-77
2021/01/12 13:24:29;;;;;;;6.87;4.83;;;1.00;99.90;;;;;;6202885;28;20224;-77
2021/01/12 13:27:34;;;;;;;13.07;5.27;;;1.00;99.90;;;;;;6202302;28;20562;-77
2021/01/12 13:30:37;;;;;;;11.90;4.77;;;1.00;99.90;;;;;;6202375;28;20239;-77
2021/01/12 13:33:39;;;;;;;9.77;5.33;;;1.10;99.90;;;;;;6202678;28;20208;-77
2021/01/12 13:36:41;;;;;;;8.50;5.37;;;1.10;99.90;;;;;;6204354;28;20231;-77
2021/01/12 13:39:44;;;;;;;7.30;4.17;;;1.20;99.90;;;;;;6203709;28;20684;-77
2021/01/12 13:42:48;;;;;;;7.77;4.50;;;1.20;99.90;;;;;;6202711;28;20227;-77
2021/01/12 13:45:50;;;;;;;7.50;4.80;;;1.20;99.90;;;;;;6201081;28;20221;-77
2021/01/12 13:48:52;;;;;;;8.30;4.80;;;1.30;99.90;;;;;;6203883;28;20208;-77
2021/01/12 13:51:56;;;;;;;7.17;3.87;;;1.30;99.90;;;;;;6203255;28;20197;-77
2021/01/12 13:55:00;;;;;;;8.93;4.37;;;1.40;99.90;;;;;;6202092;28;20197;-76
2021/01/12 13:58:05;;;;;;;7.57;4.33;;;1.40;99.90;;;;;;6202776;28;20552;-77
2021/01/12 14:01:08;;;;;;;6.63;3.90;;;1.40;99.90;;;;;;6200859;28;20515;-77
2021/01/12 14:04:10;;;;;;;6.47;3.53;;;1.40;99.90;;;;;;6202325;28;20204;-77
2021/01/12 14:07:12;;;;;;;12.30;4.43;;;1.40;99.90;;;;;;6206083;28;20240;-77
2021/01/12 14:10:14;;;;;;;7.60;3.63;;;1.40;99.90;;;;;;6218080;28;20296;-76
2021/01/12 14:13:18;;;;;;;9.37;4.20;;;1.40;99.90;;;;;;6217762;28;20608;-77
2021/01/12 14:16:21;;;;;;;6.33;4.10;;;1.40;99.90;;;;;;6217566;28;20200;-77
2021/01/12 14:19:27;;;;;;;5.50;3.23;;;1.40;99.90;;;;;;6212104;28;20212;-77
2021/01/12 14:22:31;;;;;;;7.07;3.97;;;1.30;99.90;;;;;;6201903;28;20197;-77
2021/01/12 14:25:33;;;;;;;7.67;3.93;;;1.30;99.90;;;;;;6216538;28;20237;-77
2021/01/12 14:28:35;;;;;;;6.40;3.70;;;1.20;99.90;;;;;;6185479;28;20196;-77
2021/01/12 14:31:38;;;;;;;6.37;3.53;;;1.20;99.90;;;;;;6200272;28;20211;-77
2021/01/12 14:34:40;;;;;;;6.23;3.37;;;1.10;99.90;;;;;;6202646;28;20294;-77
2021/01/12 14:37:45;;;;;;;7.40;4.03;;;1.10;99.90;;;;;;6217749;28;20582;-77
2021/01/12 14:40:49;;;;;;;5.57;3.87;;;1.10;99.90;;;;;;6201231;28;20205;-77
2021/01/12 14:43:51;;;;;;;5.30;3.43;;;1.10;99.90;;;;;;6201680;28;20192;-77
2021/01/12 14:46:54;;;;;;;5.93;3.60;;;1.00;99.90;;;;;;6201802;28;20549;-77
2021/01/12 14:49:57;;;;;;;8.03;3.70;;;1.00;99.90;;;;;;6210619;28;20725;-77
2021/01/12 14:52:59;;;;;;;5.90;3.37;;;1.00;99.90;;;;;;6201259;28;20738;-77
2021/01/12 14:56:01;;;;;;;5.50;3.57;;;0.90;99.90;;;;;;6202340;28;20729;-77
2021/01/12 14:59:04;;;;;;;4.53;3.40;;;0.90;99.90;;;;;;6199803;28;20682;-77
2021/01/12 15:02:07;;;;;;;7.43;3.70;;;0.90;99.90;;;;;;6201716;28;20344;-77
2021/01/12 15:05:09;;;;;;;5.37;3.50;;;0.80;99.90;;;;;;6200798;28;20216;-76
2021/01/12 15:08:12;;;;;;;6.27;3.93;;;0.70;99.90;;;;;;6212617;28;20327;-77
2021/01/12 15:11:13;;;;;;;4.47;3.53;;;0.70;99.90;;;;;;6203258;28;20196;-77
2021/01/12 15:14:16;;;;;;;7.70;3.87;;;0.60;99.90;;;;;;6224966;28;20207;-77
2021/01/12 15:17:18;;;;;;;6.87;3.93;;;0.60;99.90;;;;;;6226340;28;20203;-77
2021/01/12 15:20:21;;;;;;;7.30;3.93;;;0.50;99.90;;;;;;6239962;28;20228;-77
2021/01/12 15:23:23;;;;;;;6.43;3.87;;;0.50;99.90;;;;;;6224927;28;20349;-77
2021/01/12 15:26:25;;;;;;;5.90;3.93;;;0.50;99.90;;;;;;6224155;28;20232;-77
2021/01/12 15:29:28;;;;;;;4.80;3.50;;;0.40;99.90;;;;;;6224320;28;20212;-77
2021/01/12 15:32:30;;;;;;;5.20;3.60;;;0.40;99.90;;;;;;6226102;28;20211;-77
2021/01/12 15:35:32;;;;;;;5.87;3.67;;;0.40;99.90;;;;;;6225077;28;20216;-77
2021/01/12 15:38:34;;;;;;;3.60;2.50;;;0.40;99.90;;;;;;6241810;28;20595;-77
2021/01/12 15:41:36;;;;;;;4.00;2.70;;;0.40;99.90;;;;;;6227601;28;20215;-77
2021/01/12 15:44:39;;;;;;;4.77;3.20;;;0.50;99.90;;;;;;6229705;28;20212;-77
2021/01/12 15:47:41;;;;;;;4.33;2.60;;;0.50;99.90;;;;;;6228956;28;20704;-77
2021/01/12 15:50:44;;;;;;;3.30;2.40;;;0.50;99.90;;;;;;6220837;28;20243;-77
2021/01/12 15:53:48;;;;;;;4.70;2.33;;;0.60;99.90;;;;;;6204792;28;20211;-77
2021/01/12 15:56:50;;;;;;;4.07;2.77;;;0.60;99.90;;;;;;6221751;28;20558;-77